Time;durP1;ratioP1;P1;durP2;ratioP2;P2;SDS_P1;SDS_P2;PMS_P1;PMS_P2;Temp;Humidity;BMP_temperature;BMP_pressure;BME280_temperature;BME280_humidity;BME280_pressure;Samples;Min_cycle;Max_cycle;Signal;HPM_P1;HPM_P2
2023/05/13 00:00:16;;;;;;;7.22;6.53;;;;;;;13.39;79.78;101907.31;5131443;27;20036;-70
2023/05/13 00:02:44;;;;;;;10.18;6.80;;;;;;;13.37;79.52;101899.41;5114559;27;20088;-70
2023/05/13 00:05:11;;;;;;;7.30;6.53;;;;;;;13.33;79.51;101906.56;5107107;27;20052;-70
2023/05/13 00:07:38;;;;;;;7.05;6.43;;;;;;;13.29;79.79;101901.38;5112200;27;20040;-69
2023/05/13 00:10:06;;;;;;;9.93;6.43;;;;;;;13.27;79.77;101897.91;5109814;27;20058;-70
2023/05/13 00:12:33;;;;;;;8.95;6.60;;;;;;;13.22;80.10;101903.31;5123754;27;20032;-70
2023/05/13 00:15:00;;;;;;;7.47;6.70;;;;;;;13.19;80.05;101900.72;5141375;27;20629;-70
2023/05/13 00:17:27;;;;;;;7.28;6.50;;;;;;;13.16;80.37;101895.53;5121185;27;20043;-69
2023/05/13 00:19:54;;;;;;;11.75;7.15;;;;;;;13.16;79.76;101895.53;5126291;27;20046;-70
2023/05/13 00:22:21;;;;;;;8.88;6.80;;;;;;;13.16;79.72;101890.25;5121046;27;20111;-71
2023/05/13 00:24:48;;;;;;;8.23;6.82;;;;;;;13.14;79.84;101897.34;5107509;27;20044;-71
2023/05/13 00:27:15;;;;;;;7.72;6.90;;;;;;;13.11;79.70;101892.13;5123612;27;20082;-71
2023/05/13 00:29:41;;;;;;;8.50;6.68;;;;;;;13.09;79.51;101888.63;5108912;27;20040;-72
2023/05/13 00:32:09;;;;;;;6.82;6.13;;;;;;;13.10;79.22;101890.38;5115995;27;20119;-69
2023/05/13 00:34:36;;;;;;;8.35;6.50;;;;;;;13.12;78.72;101894.75;5118549;27;20040;-69
2023/05/13 00:37:03;;;;;;;8.43;6.30;;;;;;;13.12;78.28;101888.56;5124682;27;20945;-72
2023/05/13 00:39:31;;;;;;;9.18;6.47;;;;;;;13.09;78.33;101897.47;5109044;27;20127;-73
2023/05/13 00:41:58;;;;;;;9.57;6.50;;;;;;;13.05;78.38;101894.00;5120519;27;20044;-70
2023/05/13 00:44:27;;;;;;;10.50;6.35;;;;;;;13.03;78.31;101892.28;5109683;27;20036;-69
2023/05/13 00:46:55;;;;;;;7.05;6.35;;;;;;;12.98;78.42;101897.69;5109986;27;20040;-70
2023/05/13 00:49:22;;;;;;;10.18;7.00;;;;;;;12.92;78.49;101887.25;5111781;27;20148;-71
2023/05/13 00:51:54;;;;;;;13.45;6.70;;;;;;;12.88;78.43;101897.06;5120516;27;20054;-71
2023/05/13 00:54:21;;;;;;;7.38;6.55;;;;;;;12.82;79.20;101891.88;5125275;27;20028;-72
2023/05/13 00:56:48;;;;;;;8.57;6.28;;;;;;;12.78;78.75;101894.63;5128817;27;20042;-71
2023/05/13 00:59:15;;;;;;;8.10;6.05;;;;;;;12.73;79.06;101895.63;5111079;27;20040;-71
2023/05/13 01:02:33;;;;;;;8.98;6.28;;;;;;;12.71;78.80;101897.44;5124345;27;20516;-71
2023/05/13 01:05:37;;;;;;;9.90;6.28;;;;;;;12.68;78.64;101894.84;5102029;27;20056;-71
2023/05/13 01:08:31;;;;;;;8.70;6.68;;;;;;;12.64;78.79;101902.88;5108125;27;20060;-71
2023/05/13 01:11:06;;;;;;;9.60;7.13;;;;;;;12.58;78.89;101888.91;5113561;27;20046;-71
2023/05/13 01:13:41;;;;;;;9.07;6.70;;;;;;;12.56;78.60;101896.00;5120329;27;20576;-71
2023/05/13 01:16:20;;;;;;;8.13;6.68;;;;;;;12.51;78.79;101892.59;5107864;27;20060;-71
2023/05/13 01:18:55;;;;;;;9.05;6.43;;;;;;;12.49;78.54;101885.56;5118472;27;20043;-71
2023/05/13 01:21:27;;;;;;;9.63;6.53;;;;;;;12.49;78.31;101885.56;5140342;27;20853;-71
2023/05/13 01:23:55;;;;;;;8.75;6.60;;;;;;;12.47;78.56;101885.63;5126437;27;20521;-71
2023/05/13 01:26:24;;;;;;;7.22;6.40;;;;;;;12.43;78.43;101884.81;5139171;27;20566;-71
2023/05/13 01:28:52;;;;;;;10.23;6.50;;;;;;;12.41;78.20;101885.78;5145489;27;20090;-71
2023/05/13 01:31:21;;;;;;;8.27;6.45;;;;;;;12.40;78.17;101892.81;5137328;27;20592;-71
2023/05/13 01:33:49;;;;;;;8.13;6.53;;;;;;;12.36;78.14;101888.47;5124586;27;20096;-71
2023/05/13 01:36:17;;;;;;;8.68;6.85;;;;;;;12.33;78.09;101892.97;5140160;27;20492;-72
2023/05/13 01:38:47;;;;;;;8.15;6.38;;;;;;;12.31;77.91;101897.44;5139132;27;20119;-71
2023/05/13 01:41:17;;;;;;;8.88;6.30;;;;;;;12.28;77.90;101895.72;5110968;27;20538;-72
2023/05/13 01:43:44;;;;;;;10.30;6.88;;;;;;;12.27;77.90;101896.59;5108236;28;20048;-72
2023/05/13 01:46:12;;;;;;;11.38;6.70;;;;;;;12.23;77.75;101897.59;5124723;27;20044;-72
2023/05/13 01:48:40;;;;;;;8.32;6.40;;;;;;;12.18;78.10;101894.16;5108620;28;20094;-72
2023/05/13 01:51:08;;;;;;;6.53;5.90;;;;;;;12.15;77.90;101897.72;5119642;27;20045;-71
2023/05/13 01:53:35;;;;;;;11.45;6.57;;;;;;;12.12;77.55;101892.50;5108214;27;20059;-71
2023/05/13 01:56:02;;;;;;;9.05;6.13;;;;;;;12.13;77.51;101893.38;5120641;27;20036;-71
2023/05/13 01:58:29;;;;;;;9.98;6.40;;;;;;;12.13;77.14;101890.75;5139193;27;20071;-71
2023/05/13 02:00:56;;;;;;;11.02;6.28;;;;;;;12.10;77.33;101887.25;5124783;27;20143;-72
2023/05/13 02:03:23;;;;;;;8.30;6.30;;;;;;;12.11;76.84;101891.63;5107064;27;20047;-71
2023/05/13 02:05:51;;;;;;;7.95;5.97;;;;;;;12.08;77.07;101885.56;5140653;27;20141;-71
2023/05/13 02:08:20;;;;;;;8.52;6.22;;;;;;;12.03;77.14;101888.28;5109712;27;20889;-71
2023/05/13 02:10:58;;;;;;;7.55;6.25;;;;;;;12.02;77.00;101894.47;5109475;27;20032;-72
2023/05/13 02:13:27;;;;;;;9.32;6.78;;;;;;;11.97;77.08;101891.00;5108405;27;20853;-71
2023/05/13 02:15:55;;;;;;;7.88;6.25;;;;;;;11.93;77.25;101894.63;5110476;27;20036;-71
2023/05/13 02:18:23;;;;;;;7.22;6.03;;;;;;;11.94;76.80;101891.06;5116424;27;20556;-71
2023/05/13 02:20:50;;;;;;;9.52;6.55;;;;;;;11.90;77.17;101890.28;5117279;27;20081;-71
2023/05/13 02:23:17;;;;;;;10.75;6.45;;;;;;;11.85;77.49;101892.13;5126447;27;20046;-71
2023/05/13 02:25:44;;;;;;;10.95;6.80;;;;;;;11.82;77.17;101889.53;5116292;27;20131;-70
2023/05/13 02:28:11;;;;;;;13.20;6.40;;;;;;;11.79;77.24;101890.47;5108681;27;20036;-71
2023/05/13 02:30:40;;;;;;;9.25;6.20;;;;;;;11.79;77.05;101887.81;5138525;27;20124;-70
2023/05/13 02:33:08;;;;;;;8.50;6.32;;;;;;;11.79;77.03;101892.25;5132579;27;20530;-69
2023/05/13 02:35:35;;;;;;;7.63;6.05;;;;;;;11.76;76.91;101885.22;5110276;27;20077;-70
2023/05/13 02:38:03;;;;;;;9.23;6.45;;;;;;;11.76;76.92;101887.00;5123380;27;20038;-69
2023/05/13 02:40:32;;;;;;;8.10;6.50;;;;;;;11.74;77.17;101884.41;5118986;27;20036;-69
2023/05/13 02:42:59;;;;;;;9.60;6.45;;;;;;;11.69;77.24;101888.88;5101495;27;20044;-70
2023/05/13 02:45:40;;;;;;;9.40;6.63;;;;;;;11.67;77.45;101882.75;5104330;27;20059;-70
2023/05/13 02:48:09;;;;;;;9.60;6.45;;;;;;;11.68;77.02;101876.56;5092065;27;20039;-70
2023/05/13 02:50:37;;;;;;;8.35;6.25;;;;;;;11.67;77.23;101882.75;5116050;27;20044;-70
2023/05/13 02:53:04;;;;;;;11.18;6.50;;;;;;;11.64;77.29;101881.03;5121036;27;20784;-70
2023/05/13 02:55:33;;;;;;;8.68;7.00;;;;;;;11.63;77.46;101881.09;5126028;27;20047;-72
2023/05/13 02:58:00;;;;;;;9.07;6.90;;;;;;;11.60;77.58;101887.28;5114709;27;20052;-72
2023/05/13 03:00:28;;;;;;;7.63;6.55;;;;;;;11.57;77.67;101889.97;5155009;27;20047;-70
2023/05/13 03:02:56;;;;;;;10.45;7.03;;;;;;;11.55;77.90;101885.63;5121989;27;20043;-69
2023/05/13 03:05:23;;;;;;;9.88;6.80;;;;;;;11.52;77.88;101885.69;5146020;27;20052;-72
2023/05/13 03:07:50;;;;;;;10.82;7.05;;;;;;;11.46;78.39;101882.22;5110849;27;20048;-73
2023/05/13 03:10:18;;;;;;;10.32;6.80;;;;;;;11.43;78.26;101886.69;5125991;27;20036;-72
2023/05/13 03:12:45;;;;;;;10.13;6.97;;;;;;;11.42;78.48;101885.84;5106788;27;20040;-71
2023/05/13 03:15:14;;;;;;;9.43;7.20;;;;;;;11.38;78.81;101878.00;5105540;27;20551;-72
2023/05/13 03:17:43;;;;;;;8.07;6.90;;;;;;;11.35;78.72;101878.91;5135054;27;20485;-71
2023/05/13 03:20:11;;;;;;;11.38;7.63;;;;;;;11.33;78.79;101876.31;5107489;27;20059;-71
2023/05/13 03:22:38;;;;;;;11.02;7.32;;;;;;;11.30;78.88;101883.41;5119813;27;20130;-70
2023/05/13 03:25:06;;;;;;;9.35;7.13;;;;;;;11.28;79.26;101877.28;5101751;27;20114;-71
2023/05/13 03:27:40;;;;;;;10.25;7.40;;;;;;;11.23;79.39;101885.28;5125242;27;20033;-71
2023/05/13 03:30:09;;;;;;;13.55;7.78;;;;;;;11.22;79.25;101893.22;5100555;27;20053;-71
2023/05/13 03:32:45;;;;;;;10.63;7.47;;;;;;;11.18;79.47;101887.97;5116802;27;20028;-71
2023/05/13 03:35:30;;;;;;;11.77;7.60;;;;;;;11.12;79.49;101887.22;5109514;27;20111;-71
2023/05/13 03:37:58;;;;;;;11.07;8.07;;;;;;;11.10;80.23;101889.00;5141945;27;20036;-71
2023/05/13 03:40:25;;;;;;;10.80;8.10;;;;;;;11.06;80.20;101884.69;5113812;27;20499;-71
2023/05/13 03:42:52;;;;;;;12.43;8.25;;;;;;;11.07;80.11;101887.28;5113007;27;20504;-72
2023/05/13 03:45:21;;;;;;;11.73;8.45;;;;;;;11.09;80.22;101896.06;5112255;27;20044;-71
2023/05/13 03:47:51;;;;;;;11.55;8.38;;;;;;;11.07;80.25;101897.84;5103560;27;20193;-71
2023/05/13 03:50:20;;;;;;;10.35;8.40;;;;;;;11.10;80.21;101896.91;5154733;27;20533;-71
2023/05/13 03:52:47;;;;;;;11.95;8.57;;;;;;;11.06;79.91;101896.09;5114838;27;20112;-72
2023/05/13 03:55:15;;;;;;;11.68;9.27;;;;;;;11.08;80.45;101898.72;5096211;28;20068;-72
2023/05/13 03:57:48;;;;;;;10.73;8.82;;;;;;;11.11;80.27;101903.94;5111342;27;20036;-71
2023/05/13 04:00:17;;;;;;;;;;;;;;;11.08;80.51;101906.66;5134896;27;20123;-71
2023/05/13 04:02:46;;;;;;;10.60;8.43;;;;;;;11.06;80.52;101896.09;5112963;27;19924;-71
2023/05/13 04:05:14;;;;;;;10.07;8.63;;;;;;;11.08;80.53;101890.81;5105324;27;20480;-72
2023/05/13 04:07:41;;;;;;;10.45;8.50;;;;;;;11.13;80.34;101891.59;5127586;27;20042;-71
2023/05/13 04:10:09;;;;;;;9.65;8.50;;;;;;;11.16;80.30;101892.41;5119745;27;20580;-71
2023/05/13 04:12:39;;;;;;;12.73;9.13;;;;;;;11.21;80.21;101891.47;5122055;27;20103;-71
2023/05/13 04:15:07;;;;;;;13.27;9.15;;;;;;;11.24;80.10;101897.56;5137221;27;20044;-71
2023/05/13 04:17:34;;;;;;;11.80;9.10;;;;;;;11.22;80.39;101893.22;5104606;27;20554;-70
2023/05/13 04:20:01;;;;;;;11.55;8.55;;;;;;;11.23;80.14;101894.97;5113843;27;20036;-71
2023/05/13 04:22:29;;;;;;;13.85;8.90;;;;;;;11.26;80.31;101897.53;5115349;27;20043;-71
2023/05/13 04:24:56;;;;;;;10.27;8.60;;;;;;;11.26;80.17;101898.44;5121426;27;20119;-70
2023/05/13 04:27:23;;;;;;;10.20;8.77;;;;;;;11.30;79.93;101897.47;5107911;27;20044;-72
2023/05/13 04:29:56;;;;;;;9.63;8.63;;;;;;;11.32;79.92;101894.81;5127453;27;20039;-72
2023/05/13 04:32:24;;;;;;;13.18;9.20;;;;;;;11.37;80.04;101897.38;5113869;27;20042;-71
2023/05/13 04:34:54;;;;;;;10.60;8.40;;;;;;;11.43;79.52;101902.53;5120576;27;20083;-71
2023/05/13 04:37:24;;;;;;;9.45;8.43;;;;;;;11.47;79.45;101906.88;5130343;27;20036;-71
2023/05/13 04:39:55;;;;;;;11.05;8.65;;;;;;;11.54;79.01;101905.03;5137534;27;20039;-71
2023/05/13 04:42:27;;;;;;;14.57;8.50;;;;;;;11.59;78.73;101906.69;5115229;27;20031;-67
2023/05/13 04:45:01;;;;;;;12.15;8.98;;;;;;;11.62;78.55;101905.75;5123490;27;20028;-70
2023/05/13 04:47:28;;;;;;;11.27;8.60;;;;;;;11.62;78.69;101913.69;5121686;27;20054;-70
2023/05/13 04:49:55;;;;;;;13.50;8.85;;;;;;;11.59;79.03;101914.59;5154357;27;20040;-69
2023/05/13 04:52:22;;;;;;;10.98;8.65;;;;;;;11.55;78.75;101912.91;5117673;27;20040;-69
2023/05/13 04:54:50;;;;;;;10.75;8.60;;;;;;;11.52;79.07;101915.59;5106125;27;20115;-70
2023/05/13 04:57:18;;;;;;;13.30;9.02;;;;;;;11.51;79.20;101916.47;5145702;27;20522;-70
2023/05/13 04:59:45;;;;;;;13.20;9.18;;;;;;;11.56;79.12;101911.13;5134122;27;20139;-68
2023/05/13 05:02:13;;;;;;;14.35;9.55;;;;;;;11.71;78.76;101918.78;5131986;27;20029;-70
2023/05/13 05:04:48;;;;;;;10.23;8.93;;;;;;;11.93;78.88;101927.19;5123599;27;20518;-69
2023/05/13 05:07:15;;;;;;;10.85;8.70;;;;;;;12.26;77.54;101938.06;5136712;27;20254;-70
2023/05/13 05:09:43;;;;;;;10.93;8.80;;;;;;;12.91;75.43;101934.94;5118953;27;20796;-70
2023/05/13 05:12:10;;;;;;;12.23;9.02;;;;;;;13.32;73.86;101941.03;5135981;27;20174;-70
2023/05/13 05:14:42;;;;;;;10.00;8.60;;;;;;;13.42;73.26;101936.41;5126374;27;20609;-71
2023/05/13 05:17:10;;;;;;;10.70;7.97;;;;;;;13.45;73.16;101934.56;5125039;27;20728;-70
2023/05/13 05:19:37;;;;;;;12.40;8.68;;;;;;;13.29;74.15;101933.16;5093939;27;20069;-71
2023/05/13 05:22:09;;;;;;;9.68;8.35;;;;;;;13.23;73.92;101939.47;5108713;27;20048;-70
2023/05/13 05:24:36;;;;;;;10.65;8.55;;;;;;;13.49;73.26;101935.34;5141304;27;20040;-70
2023/05/13 05:27:03;;;;;;;10.43;8.68;;;;;;;13.46;73.28;101932.78;5139828;27;20048;-70
2023/05/13 05:29:30;;;;;;;9.43;8.15;;;;;;;13.33;72.85;101938.34;5117940;27;20788;-70
2023/05/13 05:31:57;;;;;;;11.80;8.43;;;;;;;13.22;72.90;101936.88;5116406;27;20205;-70
2023/05/13 05:34:25;;;;;;;9.65;8.13;;;;;;;13.13;73.49;101941.47;5125302;27;20039;-70
2023/05/13 05:36:54;;;;;;;10.15;8.18;;;;;;;13.72;71.47;101939.19;5107884;27;20140;-71
2023/05/13 05:39:22;;;;;;;10.93;8.75;;;;;;;13.73;71.50;101940.94;5142411;27;20043;-70
2023/05/13 05:41:49;;;;;;;9.45;7.93;;;;;;;14.90;67.98;101936.78;5123807;27;20055;-71
2023/05/13 05:44:22;;;;;;;12.05;8.70;;;;;;;17.13;62.19;101928.91;5119502;27;20097;-71
2023/05/13 05:46:52;;;;;;;8.95;7.72;;;;;;;18.52;57.51;101932.72;5124990;27;20849;-71
2023/05/13 05:49:19;;;;;;;10.18;6.97;;;;;;;19.36;55.96;101931.41;5141549;27;20101;-71
2023/05/13 05:51:52;;;;;;;8.30;6.95;;;;;;;19.08;53.76;101939.00;5129402;27;20888;-71
2023/05/13 05:54:20;;;;;;;12.07;6.78;;;;;;;19.46;53.75;101932.69;5124711;27;20032;-71
2023/05/13 05:56:48;;;;;;;10.57;6.90;;;;;;;18.04;56.09;101944.69;5126027;27;20047;-71
2023/05/13 05:59:17;;;;;;;8.85;7.32;;;;;;;16.63;59.30;101942.41;5123425;27;20035;-71
2023/05/13 06:01:45;;;;;;;9.07;7.03;;;;;;;15.78;62.23;101949.84;5122347;27;20526;-70
2023/05/13 06:04:13;;;;;;;10.85;7.97;;;;;;;15.27;65.03;101951.53;5128557;27;20127;-72
2023/05/13 06:06:41;;;;;;;11.32;8.00;;;;;;;14.96;65.72;101949.00;5113388;27;20087;-71
2023/05/13 06:09:08;;;;;;;11.80;7.82;;;;;;;14.76;66.69;101958.44;5107119;27;20046;-70
2023/05/13 06:11:35;;;;;;;9.82;7.82;;;;;;;14.69;67.49;101952.44;5114376;27;20150;-71
2023/05/13 06:14:02;;;;;;;12.20;8.30;;;;;;;14.66;68.16;101952.47;5120988;27;20043;-70
2023/05/13 06:16:29;;;;;;;10.88;8.63;;;;;;;14.64;67.76;101956.09;5111406;27;20097;-71
2023/05/13 06:18:59;;;;;;;9.50;8.60;;;;;;;14.50;68.84;101962.69;5119519;27;20068;-70
2023/05/13 06:21:26;;;;;;;10.43;8.35;;;;;;;14.48;68.98;101956.56;5120733;27;20977;-70
2023/05/13 06:23:53;;;;;;;9.55;8.45;;;;;;;14.46;69.88;101955.75;5140109;27;20032;-69
2023/05/13 06:26:20;;;;;;;11.32;8.50;;;;;;;14.48;70.05;101958.34;5142220;27;20043;-69
2023/05/13 06:28:47;;;;;;;10.50;8.75;;;;;;;14.54;69.11;101963.47;5139553;27;20039;-72
2023/05/13 06:31:15;;;;;;;11.30;8.30;;;;;;;14.49;69.47;101955.66;5124246;27;20032;-72
2023/05/13 06:33:43;;;;;;;11.68;8.32;;;;;;;14.51;69.27;101950.28;5137850;27;20043;-73
2023/05/13 06:36:10;;;;;;;11.30;8.30;;;;;;;14.54;70.43;101959.03;5113610;27;20116;-71
2023/05/13 06:38:37;;;;;;;12.02;8.43;;;;;;;14.64;69.73;101958.75;5114760;27;20475;-72
2023/05/13 06:41:05;;;;;;;13.95;8.68;;;;;;;14.68;69.51;101958.66;5113160;27;20205;-70
2023/05/13 06:43:37;;;;;;;10.30;8.90;;;;;;;14.72;70.04;101952.34;5149727;27;20070;-70
2023/05/13 06:46:16;;;;;;;11.65;8.35;;;;;;;14.80;68.98;101957.44;5110006;27;20130;-71
2023/05/13 06:48:43;;;;;;;11.25;8.75;;;;;;;14.90;68.65;101965.97;5139118;27;20036;-71
2023/05/13 06:51:10;;;;;;;9.18;8.23;;;;;;;14.90;69.69;101969.47;5117262;27;20054;-70
2023/05/13 06:53:37;;;;;;;13.02;8.73;;;;;;;15.00;68.41;101974.53;5122587;27;20823;-70
2023/05/13 06:56:05;;;;;;;11.00;8.07;;;;;;;15.03;67.87;101970.00;5127273;27;20044;-70
2023/05/13 06:58:32;;;;;;;10.98;8.57;;;;;;;15.00;68.40;101970.09;5121785;27;20602;-71
2023/05/13 07:00:59;;;;;;;11.23;8.73;;;;;;;15.03;68.76;101975.31;5123006;27;21021;-71
2023/05/13 07:03:26;;;;;;;10.20;8.80;;;;;;;15.11;68.40;101976.84;5115565;27;20550;-71
2023/05/13 07:05:54;;;;;;;11.48;8.77;;;;;;;15.15;69.26;101976.69;5125541;27;20024;-70
2023/05/13 07:08:21;;;;;;;14.50;9.15;;;;;;;15.26;70.29;101973.69;5128847;27;20057;-71
2023/05/13 07:10:48;;;;;;;11.73;8.60;;;;;;;15.44;68.64;101982.00;5126298;27;20044;-70
2023/05/13 07:13:19;;;;;;;11.75;9.05;;;;;;;15.51;67.78;101984.41;5152325;27;20090;-70
2023/05/13 07:15:46;;;;;;;10.52;8.48;;;;;;;15.58;67.56;101985.06;5129125;27;20040;-71
2023/05/13 07:18:13;;;;;;;10.50;8.93;;;;;;;15.63;67.89;101984.91;5128527;27;20032;-71
2023/05/13 07:20:40;;;;;;;11.27;8.88;;;;;;;15.69;67.88;101969.63;5126321;27;20543;-70
2023/05/13 07:23:07;;;;;;;10.68;8.50;;;;;;;15.82;68.37;101978.03;5144433;27;20027;-70
2023/05/13 07:25:34;;;;;;;13.73;8.15;;;;;;;15.95;67.84;101978.53;5128200;27;20516;-70
2023/05/13 07:28:04;;;;;;;11.48;8.60;;;;;;;16.06;66.57;101977.31;5122964;27;20050;-70
2023/05/13 07:30:32;;;;;;;11.20;8.40;;;;;;;16.08;66.24;101975.44;5119046;27;20042;-70
2023/05/13 07:32:59;;;;;;;10.20;8.98;;;;;;;16.12;65.92;101972.63;5122807;27;20047;-71
2023/05/13 07:35:32;;;;;;;11.32;8.57;;;;;;;16.23;66.65;101977.56;5124851;27;20116;-70
2023/05/13 07:37:59;;;;;;;9.60;8.32;;;;;;;16.33;67.41;101975.41;5125920;27;20035;-70
2023/05/13 07:40:26;;;;;;;12.68;8.00;;;;;;;16.43;67.49;101978.63;5141213;27;20054;-70
2023/05/13 07:42:53;;;;;;;9.52;8.30;;;;;;;16.58;66.30;101979.84;5137714;27;20071;-69
2023/05/13 07:45:20;;;;;;;10.13;7.95;;;;;;;16.65;66.10;101984.00;5115725;27;20040;-70
2023/05/13 07:47:48;;;;;;;13.38;8.25;;;;;;;16.73;64.84;101986.38;5119200;27;20128;-70
2023/05/13 07:50:15;;;;;;;10.98;8.50;;;;;;;16.79;66.21;101982.63;5125365;27;20040;-70
2023/05/13 07:52:42;;;;;;;10.05;8.20;;;;;;;16.95;64.38;101977.59;5125175;27;21053;-70
2023/05/13 07:55:09;;;;;;;10.38;8.52;;;;;;;16.97;64.46;101971.28;5124583;27;20042;-70
2023/05/13 07:57:36;;;;;;;10.05;8.80;;;;;;;17.03;65.11;101979.03;5124848;27;20040;-70
2023/05/13 08:00:04;;;;;;;15.43;8.35;;;;;;;17.13;64.26;101981.34;5153721;27;20879;-70
2023/05/13 08:02:40;;;;;;;12.30;8.38;;;;;;;17.21;63.54;101985.41;5128093;27;20614;-70
2023/05/13 08:05:07;;;;;;;11.15;7.75;;;;;;;17.31;62.96;101987.69;5126477;27;20036;-70
2023/05/13 08:07:35;;;;;;;16.42;8.10;;;;;;;17.39;62.77;101981.13;5129012;27;20039;-71
2023/05/13 08:10:02;;;;;;;10.95;7.53;;;;;;;17.49;63.24;101983.41;5123757;27;20495;-70
2023/05/13 08:12:29;;;;;;;8.68;7.45;;;;;;;17.62;61.41;101981.09;5123522;27;20038;-71
2023/05/13 08:14:56;;;;;;;9.48;7.47;;;;;;;17.67;62.24;101987.97;5125071;27;20097;-70
2023/05/13 08:17:23;;;;;;;10.68;7.28;;;;;;;17.77;62.28;101982.25;5122855;27;20341;-71
2023/05/13 08:19:50;;;;;;;13.23;7.80;;;;;;;17.85;61.04;101993.50;5118953;27;20071;-71
2023/05/13 08:22:17;;;;;;;8.77;7.68;;;;;;;17.84;60.44;101983.75;5141454;27;20035;-71
2023/05/13 08:24:44;;;;;;;13.07;8.50;;;;;;;17.90;62.30;101987.94;5124513;27;20036;-71
2023/05/13 08:27:11;;;;;;;10.77;7.68;;;;;;;18.07;61.07;101988.13;5126463;27;20040;-71
2023/05/13 08:29:38;;;;;;;8.70;7.22;;;;;;;18.18;61.33;101984.97;5116752;27;20040;-71
2023/05/13 08:32:05;;;;;;;9.10;7.47;;;;;;;18.25;59.92;101982.88;5121253;27;20043;-72
2023/05/13 08:34:33;;;;;;;8.15;7.15;;;;;;;18.25;59.85;101981.09;5138700;27;20051;-71
2023/05/13 08:37:00;;;;;;;11.30;7.30;;;;;;;18.36;60.87;101985.09;5120009;27;20035;-72
2023/05/13 08:39:27;;;;;;;9.00;6.88;;;;;;;18.52;60.29;101990.59;5126312;27;20057;-72
2023/05/13 08:41:58;;;;;;;8.07;7.03;;;;;;;18.64;59.83;101982.00;5125917;27;20040;-72
2023/05/13 08:44:28;;;;;;;11.20;7.20;;;;;;;18.77;58.33;101974.31;5125006;27;20500;-70
2023/05/13 08:47:06;;;;;;;10.85;7.40;;;;;;;18.83;57.77;101989.16;5139852;27;20574;-70
2023/05/13 08:49:34;;;;;;;12.00;7.03;;;;;;;18.84;59.38;101980.19;5131156;27;20050;-70
2023/05/13 08:52:01;;;;;;;8.63;6.70;;;;;;;18.94;59.60;101970.84;5129215;27;20054;-70
2023/05/13 08:54:29;;;;;;;9.52;7.30;;;;;;;19.02;57.16;101970.47;5120766;27;20032;-71
2023/05/13 08:56:56;;;;;;;10.73;6.75;;;;;;;19.05;57.14;101973.03;5129341;27;20097;-72
2023/05/13 08:59:23;;;;;;;8.95;6.57;;;;;;;19.18;56.25;101978.63;5107443;27;20043;-72
2023/05/13 09:01:52;;;;;;;9.88;6.60;;;;;;;19.15;57.88;101973.41;5134007;27;20050;-72
2023/05/13 09:04:19;;;;;;;9.07;6.95;;;;;;;19.26;58.30;101981.78;5125890;27;20044;-72
2023/05/13 09:06:47;;;;;;;9.80;7.18;;;;;;;19.36;58.22;101979.53;5123018;27;20039;-72
2023/05/13 09:09:14;;;;;;;9.35;6.55;;;;;;;19.46;57.25;101980.81;5128778;27;20055;-70
2023/05/13 09:11:41;;;;;;;11.10;7.18;;;;;;;19.52;57.29;101977.81;5129652;27;20051;-70
2023/05/13 09:14:12;;;;;;;7.15;6.20;;;;;;;19.58;56.16;101978.47;5146746;27;20035;-70
2023/05/13 09:16:41;;;;;;;9.15;7.15;;;;;;;19.62;55.98;101975.56;5128440;27;20040;-71
2023/05/13 09:19:10;;;;;;;10.20;7.03;;;;;;;19.65;56.78;101983.41;5126003;27;20192;-70
2023/05/13 09:21:37;;;;;;;9.57;6.93;;;;;;;19.75;56.97;101967.78;5123493;27;20035;-70
2023/05/13 09:24:10;;;;;;;11.05;6.82;;;;;;;19.89;57.38;101971.59;5128219;27;20042;-71
2023/05/13 09:26:43;;;;;;;9.65;6.55;;;;;;;20.00;58.24;101975.44;5127794;27;20048;-70
2023/05/13 09:29:20;;;;;;;8.93;6.20;;;;;;;20.27;56.84;101972.22;5129879;27;20512;-71
2023/05/13 09:31:56;;;;;;;12.05;6.65;;;;;;;20.44;55.71;101962.44;5127694;27;20598;-72
2023/05/13 09:34:30;;;;;;;7.72;6.18;;;;;;;20.51;54.48;101962.94;5128849;27;20038;-72
2023/05/13 09:37:07;;;;;;;7.28;5.88;;;;;;;20.58;51.62;101962.53;5140872;27;20039;-72
2023/05/13 09:39:40;;;;;;;8.88;6.10;;;;;;;20.55;54.14;101953.78;5134334;27;20046;-71
2023/05/13 09:42:18;;;;;;;10.23;5.78;;;;;;;20.67;54.82;101954.91;5126409;27;20218;-70
2023/05/13 09:44:46;;;;;;;6.85;5.70;;;;;;;20.88;51.79;101960.94;5125184;27;20031;-70
2023/05/13 09:47:15;;;;;;;7.57;5.72;;;;;;;20.91;51.85;101952.72;5130456;27;20047;-69
2023/05/13 09:49:44;;;;;;;6.60;5.57;;;;;;;20.93;53.59;101956.16;5130067;27;20115;-70
2023/05/13 09:52:15;;;;;;;7.57;5.70;;;;;;;20.99;51.63;101941.56;5126945;27;20058;-69
2023/05/13 09:54:43;;;;;;;9.75;5.55;;;;;;;21.06;52.06;101943.81;5145581;27;20039;-70
2023/05/13 09:57:12;;;;;;;9.88;5.72;;;;;;;21.20;50.41;101944.84;5116889;27;20160;-70
2023/05/13 09:59:40;;;;;;;9.68;5.90;;;;;;;21.17;51.48;101945.84;5129182;27;20495;-70
2023/05/13 10:02:14;;;;;;;10.10;5.80;;;;;;;21.25;52.30;101948.09;5130082;27;20035;-70
2023/05/13 10:04:42;;;;;;;8.25;5.20;;;;;;;21.41;52.00;101937.34;5124800;27;20075;-70
2023/05/13 10:07:11;;;;;;;8.90;4.43;;;;;;;21.66;49.77;101936.78;5125420;27;20055;-70
2023/05/13 10:09:39;;;;;;;7.28;4.68;;;;;;;21.76;51.66;101930.84;5121089;27;20034;-70
2023/05/13 10:12:09;;;;;;;5.25;4.35;;;;;;;21.99;47.16;101933.00;5121867;27;20742;-70
2023/05/13 10:14:36;;;;;;;5.10;4.15;;;;;;;22.00;47.14;101932.06;5123534;27;20036;-70
2023/05/13 10:17:05;;;;;;;8.07;4.43;;;;;;;22.10;47.95;101926.09;5130394;27;20039;-71
2023/05/13 10:19:33;;;;;;;7.03;4.15;;;;;;;22.22;46.77;101928.03;5114340;27;20036;-70
2023/05/13 10:22:01;;;;;;;7.13;4.60;;;;;;;22.31;47.81;101924.75;5117133;27;20121;-70
2023/05/13 10:24:29;;;;;;;5.68;4.07;;;;;;;22.44;46.80;101924.88;5143863;27;20147;-71
2023/05/13 10:26:57;;;;;;;6.97;4.50;;;;;;;22.54;47.94;101930.50;5111369;27;20035;-70
2023/05/13 10:29:25;;;;;;;5.60;4.82;;;;;;;22.73;46.21;101915.91;5145790;27;20043;-70
2023/05/13 10:31:55;;;;;;;7.00;4.60;;;;;;;22.79;47.48;101916.34;5131730;27;20047;-70
2023/05/13 10:34:24;;;;;;;6.05;3.65;;;;;;;22.86;46.10;101916.81;5125810;27;20047;-70
2023/05/13 10:37:26;;;;;;;5.65;3.50;;;;;;;22.94;46.02;101911.78;5126321;27;20097;-70
2023/05/13 10:40:15;;;;;;;6.70;3.63;;;;;;;23.07;44.50;101910.97;5141646;27;20031;-70
2023/05/13 10:43:11;;;;;;;6.50;3.83;;;;;;;23.13;43.60;101913.28;5123365;27;20523;-70
2023/05/13 10:45:42;;;;;;;5.82;3.63;;;;;;;23.16;43.63;101914.88;5144503;27;20136;-70
2023/05/13 10:48:14;;;;;;;7.82;3.47;;;;;;;23.21;43.93;101916.34;5119735;27;20105;-70
2023/05/13 10:51:00;;;;;;;5.70;3.42;;;;;;;23.32;42.23;101906.69;5128941;27;20083;-70
2023/05/13 10:53:31;;;;;;;4.82;3.20;;;;;;;23.35;42.25;101912.72;5127000;27;20035;-70
2023/05/13 10:55:59;;;;;;;6.03;3.50;;;;;;;23.44;42.12;101908.53;5127690;27;20499;-70
2023/05/13 10:58:32;;;;;;;3.72;2.70;;;;;;;23.50;41.02;101905.41;5133260;27;20044;-70
2023/05/13 11:01:25;;;;;;;;;;;;;;;23.54;41.22;101904.25;5129887;27;20031;-72
2023/05/13 11:03:59;;;;;;;7.68;3.30;;;;;;;23.84;40.16;101908.47;5128158;27;19924;-70
2023/05/13 11:06:34;;;;;;;;;;;;;;;23.93;40.74;101909.63;5119426;27;20082;-70
2023/05/13 11:09:11;;;;;;;6.45;3.53;;;;;;;23.76;40.22;101901.88;5150828;27;19928;-69
2023/05/13 11:11:39;;;;;;;5.30;3.47;;;;;;;23.75;40.12;101903.75;5129870;27;20112;-70
2023/05/13 11:14:23;;;;;;;6.00;2.70;;;;;;;23.45;40.05;101902.19;5120303;27;20040;-70
2023/05/13 11:17:00;;;;;;;5.57;2.80;;;;;;;23.56;38.60;101894.22;5127300;27;20039;-69
2023/05/13 11:19:28;;;;;;;4.18;2.80;;;;;;;23.69;36.73;101883.50;5123335;27;20448;-70
2023/05/13 11:22:07;;;;;;;4.03;2.88;;;;;;;23.96;38.46;101890.63;5120746;27;20516;-70
2023/05/13 11:24:35;;;;;;;5.93;3.03;;;;;;;24.14;37.70;101895.66;5110548;27;20046;-70
2023/05/13 11:27:19;;;;;;;3.85;2.50;;;;;;;24.21;35.65;101891.56;5144594;27;20073;-72
2023/05/13 11:29:53;;;;;;;4.32;2.60;;;;;;;24.22;34.05;101885.19;5110681;27;20039;-70
2023/05/13 11:33:01;;;;;;;5.05;2.30;;;;;;;24.18;36.09;101883.69;5128327;27;20051;-70